North Baldwin, New York
Current Conditions -  °F | °C
As of 7:51 PM on Saturday 20 Dec 2014 (Local Time) from KJFK Reporting Station
Overcast Overcast  
Wind Chill: 28°   Ceiling: 3100
Heat Index: 34°   Visibility: 10mi
Dew Point: 21°   Wind: 7mph
Humidity: 59%   Direction: 10°N
Pressure: 30.29"   Gusts: NA
Location:  40.6539°N, 73.609°W
Report Text: KJFK 210051Z 01006KT 10SM OVC031 01/M06 A3029 RMK AO2 SLP257 T00111061 $
Loading
Personal Weather Stations






























Interactive Weather Map New forecast layout! Learn more

10-Day Weather Forecast

Advertisements
Track Severe Weather on mobile